KIS weather

Kisumu Airport
Kisumu, Nyanza Province, Kenya

Public forecast

Using degrees Celsius for public forecast. Weather courtesy of forecast.io.

Current aviation weather report (METAR) for Kisumu Airport

Retrieved 2020/05/26 06:00 UTC (6 minutes ago):

HKKI 260600Z 07006KT 9999 FEW020 24/19 Q1019

Aviation forecast (TAF) for Kisumu Airport

Retrieved 2020/05/26 06:03 UTC (3 minutes ago):

TAF TAF HKKI 260500Z 2606/2706 VRB05KT 9999 FEW019 SCT090 BECMG 2608/2611 22010KT FEW024CB BKN090 BECMG 2620/2623 VRB05KT FEW020CB BKN080 TEMPO 2700/2706 FEW018 SCT090